Time;durP1;ratioP1;P1;durP2;ratioP2;P2;SDS_P1;SDS_P2;PMS_P1;PMS_P2;Temp;Humidity;BMP_temperature;BMP_pressure;BME280_temperature;BME280_humidity;BME280_pressure;Samples;Min_cycle;Max_cycle;Signal;HPM_P1;HPM_P2
2021/08/30 00:00:16;;;;;;;4.30;3.90;;;15.60;99.90;;;;;;5092156;28;20522;-79
2021/08/30 00:02:42;;;;;;;4.67;4.17;;;15.70;99.90;;;;;;5092142;28;20569;-79
2021/08/30 00:05:11;;;;;;;4.70;3.70;;;15.70;99.90;;;;;;5090000;28;20542;-79
2021/08/30 00:07:38;;;;;;;3.47;3.10;;;15.70;99.90;;;;;;5092388;28;20533;-79
2021/08/30 00:10:06;;;;;;;4.60;3.77;;;15.70;99.90;;;;;;5091942;28;20493;-80
2021/08/30 00:12:39;;;;;;;3.70;3.20;;;15.70;99.90;;;;;;5092189;28;20474;-80
2021/08/30 00:15:07;;;;;;;3.37;3.07;;;15.60;99.90;;;;;;5092503;28;20542;-79
2021/08/30 00:17:34;;;;;;;3.50;3.20;;;15.60;99.90;;;;;;5094991;28;20529;-79
2021/08/30 00:20:00;;;;;;;2.67;2.47;;;15.70;99.90;;;;;;5095917;28;20529;-79
2021/08/30 00:22:28;;;;;;;3.07;2.87;;;15.70;99.90;;;;;;5095856;28;20569;-79
2021/08/30 00:24:54;;;;;;;3.00;2.80;;;15.60;99.90;;;;;;5095787;28;20525;-79
2021/08/30 00:27:21;;;;;;;3.67;3.47;;;15.60;99.90;;;;;;5096040;28;20514;-79
2021/08/30 00:29:47;;;;;;;3.40;3.10;;;15.60;99.90;;;;;;5095608;28;20470;-79
2021/08/30 00:32:14;;;;;;;5.03;3.23;;;15.60;99.90;;;;;;5094126;28;20474;-80
2021/08/30 00:34:40;;;;;;;3.53;3.27;;;15.70;99.90;;;;;;5081015;28;20525;-79
2021/08/30 00:37:07;;;;;;;4.07;3.43;;;15.70;99.90;;;;;;5095724;28;20525;-79
2021/08/30 00:39:35;;;;;;;3.63;3.23;;;15.70;99.90;;;;;;5095583;28;20505;-80
2021/08/30 00:42:01;;;;;;;3.80;3.20;;;15.80;99.90;;;;;;5095782;28;20553;-80
2021/08/30 00:44:28;;;;;;;3.33;3.03;;;15.80;99.90;;;;;;5081437;28;20553;-80
2021/08/30 00:46:55;;;;;;;2.90;2.70;;;15.80;99.90;;;;;;5095598;28;20446;-80
2021/08/30 00:49:22;;;;;;;2.97;2.77;;;15.90;99.90;;;;;;5095293;28;20482;-80
2021/08/30 00:51:50;;;;;;;3.37;3.17;;;15.90;99.90;;;;;;5095324;28;20567;-80
2021/08/30 00:54:17;;;;;;;7.13;3.67;;;15.90;99.90;;;;;;5094921;28;20486;-80
2021/08/30 00:56:45;;;;;;;4.83;3.90;;;15.90;99.90;;;;;;5095256;28;20533;-80
2021/08/30 00:59:12;;;;;;;4.80;4.10;;;15.90;99.90;;;;;;5094814;28;20969;-80
2021/08/30 01:01:38;;;;;;;4.27;3.87;;;15.80;99.90;;;;;;5095116;28;20546;-80
2021/08/30 01:04:08;;;;;;;4.67;4.30;;;15.90;99.90;;;;;;5093970;28;20537;-80
2021/08/30 01:06:42;;;;;;;5.67;5.20;;;15.90;99.90;;;;;;5079740;28;20534;-80
2021/08/30 01:09:16;;;;;;;5.83;4.50;;;15.90;99.90;;;;;;5094705;28;20537;-80
2021/08/30 01:11:51;;;;;;;4.67;4.27;;;15.90;99.90;;;;;;5090539;28;20533;-81
2021/08/30 01:14:20;;;;;;;5.07;4.27;;;15.90;99.90;;;;;;5086873;28;20470;-81
2021/08/30 01:16:47;;;;;;;4.40;4.10;;;15.90;99.90;;;;;;5087226;28;20522;-80
2021/08/30 01:19:19;;;;;;;4.87;4.30;;;16.00;99.90;;;;;;5094756;28;20608;-80
2021/08/30 01:21:47;;;;;;;5.03;4.70;;;16.00;99.90;;;;;;5078218;28;20533;-80
2021/08/30 01:24:16;;;;;;;4.67;4.37;;;15.90;99.90;;;;;;5094521;28;20475;-80
2021/08/30 01:26:46;;;;;;;4.07;3.77;;;15.90;99.90;;;;;;5093847;28;20450;-80
2021/08/30 01:29:21;;;;;;;5.83;4.67;;;16.00;99.90;;;;;;5089081;28;20539;-80
2021/08/30 01:31:53;;;;;;;5.07;4.67;;;16.00;99.90;;;;;;5078437;28;20533;-80
2021/08/30 01:34:23;;;;;;;5.30;4.90;;;15.90;99.90;;;;;;5094386;28;20474;-80
2021/08/30 01:36:51;;;;;;;4.70;4.40;;;15.90;99.90;;;;;;5094241;28;20537;-80
2021/08/30 01:39:18;;;;;;;4.70;4.40;;;15.90;99.90;;;;;;5094269;28;20477;-80
2021/08/30 01:41:46;;;;;;;4.80;4.40;;;15.90;99.90;;;;;;5094189;28;20798;-80
2021/08/30 01:44:14;;;;;;;5.63;4.97;;;15.80;99.90;;;;;;5086425;28;20561;-80
2021/08/30 01:46:42;;;;;;;5.53;5.10;;;15.80;99.90;;;;;;5093868;28;20529;-80
2021/08/30 01:49:11;;;;;;;6.23;5.03;;;15.80;99.90;;;;;;5094380;28;20533;-80
2021/08/30 01:51:39;;;;;;;5.67;5.17;;;15.70;99.90;;;;;;5094265;28;20791;-79
2021/08/30 01:54:07;;;;;;;6.00;5.50;;;15.70;99.90;;;;;;5093980;28;20450;-79
2021/08/30 01:56:34;;;;;;;5.60;5.20;;;15.70;99.90;;;;;;5094130;28;20530;-79
2021/08/30 02:01:49;;;;;;;6.50;5.90;;;15.70;99.90;;;;;;5077771;28;20430;-80
2021/08/30 02:04:16;;;;;;;6.53;6.00;;;15.70;99.90;;;;;;5093815;28;20915;-80
2021/08/30 02:06:44;;;;;;;5.77;5.30;;;15.70;99.90;;;;;;5092444;28;20842;-81
2021/08/30 02:09:10;;;;;;;7.70;6.17;;;15.80;99.90;;;;;;5094180;28;20534;-80
2021/08/30 02:11:38;;;;;;;6.23;5.73;;;15.70;99.90;;;;;;5093928;28;20995;-80
2021/08/30 02:14:07;;;;;;;7.83;5.30;;;15.70;99.90;;;;;;5081191;28;20451;-81
2021/08/30 02:16:34;;;;;;;5.80;5.40;;;15.70;99.90;;;;;;5093833;28;20461;-80
2021/08/30 02:19:09;;;;;;;6.80;6.23;;;15.70;99.90;;;;;;5094974;28;20522;-80
2021/08/30 02:21:41;;;;;;;5.57;5.17;;;15.70;99.90;;;;;;5094103;28;20453;-80
2021/08/30 02:24:13;;;;;;;5.33;4.83;;;15.80;99.90;;;;;;5093698;28;20474;-78
2021/08/30 02:26:46;;;;;;;5.27;4.77;;;15.70;99.90;;;;;;5093172;28;20533;-78
2021/08/30 02:29:18;;;;;;;5.03;4.63;;;15.80;99.90;;;;;;5093206;28;20489;-78
2021/08/30 02:31:50;;;;;;;4.80;4.50;;;15.80;99.90;;;;;;5076798;28;20529;-78
2021/08/30 02:34:19;;;;;;;5.23;4.83;;;15.80;99.90;;;;;;5093272;28;21021;-77
2021/08/30 02:36:46;;;;;;;5.37;4.97;;;15.80;99.90;;;;;;5093218;28;20474;-78
2021/08/30 02:39:14;;;;;;;6.00;5.40;;;15.80;99.90;;;;;;5092490;28;20537;-78
2021/08/30 02:41:42;;;;;;;5.03;4.70;;;15.80;99.90;;;;;;5092836;28;20478;-78
2021/08/30 02:44:08;;;;;;;5.53;4.77;;;15.90;99.90;;;;;;5084772;28;20577;-78
2021/08/30 02:46:36;;;;;;;5.57;5.07;;;15.90;99.90;;;;;;5093402;28;20568;-78
2021/08/30 02:49:04;;;;;;;5.27;4.60;;;15.90;99.90;;;;;;5093035;28;20537;-78
2021/08/30 02:51:32;;;;;;;4.63;4.30;;;15.90;99.90;;;;;;5092936;28;21008;-78
2021/08/30 02:53:59;;;;;;;4.73;4.33;;;15.80;99.90;;;;;;5092735;28;20485;-78
2021/08/30 02:56:27;;;;;;;4.50;4.10;;;15.80;99.90;;;;;;5092775;28;20447;-78
2021/08/30 02:58:55;;;;;;;4.03;3.73;;;15.80;99.90;;;;;;5092923;28;20534;-78
2021/08/30 03:01:22;;;;;;;3.30;3.10;;;15.80;99.90;;;;;;5092952;28;20996;-79
2021/08/30 03:03:49;;;;;;;5.03;4.73;;;15.80;99.90;;;;;;5093012;28;20482;-79
2021/08/30 03:06:17;;;;;;;4.60;4.30;;;15.80;99.90;;;;;;5092626;28;21025;-79
2021/08/30 03:08:44;;;;;;;4.90;4.60;;;15.80;99.90;;;;;;5093013;28;20537;-78
2021/08/30 03:11:14;;;;;;;5.43;4.90;;;15.80;99.90;;;;;;5092655;28;20529;-78
2021/08/30 03:13:44;;;;;;;5.07;4.67;;;15.80;99.90;;;;;;5092552;28;20848;-78
2021/08/30 03:16:12;;;;;;;5.30;4.90;;;15.80;99.90;;;;;;5092617;28;20478;-78
2021/08/30 03:18:40;;;;;;;5.27;4.80;;;15.70;99.90;;;;;;5092515;28;20526;-78
2021/08/30 03:21:08;;;;;;;5.70;4.40;;;15.70;99.90;;;;;;5092810;28;20837;-78
2021/08/30 03:23:37;;;;;;;5.93;5.37;;;15.70;99.90;;;;;;5092183;28;20470;-78
2021/08/30 03:26:04;;;;;;;4.57;4.23;;;15.70;99.90;;;;;;5092750;28;20450;-79
2021/08/30 03:28:31;;;;;;;4.93;4.63;;;15.70;99.90;;;;;;5092687;28;20549;-78
2021/08/30 03:30:59;;;;;;;4.57;3.90;;;15.80;99.90;;;;;;5092530;28;20470;-78
2021/08/30 03:33:26;;;;;;;5.90;5.37;;;15.80;99.90;;;;;;5092456;28;20906;-77
2021/08/30 03:35:53;;;;;;;4.30;4.00;;;15.80;99.90;;;;;;5092531;28;20521;-77
2021/08/30 03:38:22;;;;;;;4.60;4.30;;;15.80;99.90;;;;;;5092387;28;20474;-77
2021/08/30 03:40:50;;;;;;;4.50;4.20;;;15.80;99.90;;;;;;5092509;28;20533;-77
2021/08/30 03:43:17;;;;;;;5.13;4.73;;;15.90;99.90;;;;;;5084320;28;20561;-78
2021/08/30 03:45:44;;;;;;;4.90;4.53;;;15.90;99.90;;;;;;5092910;28;20474;-78
2021/08/30 03:48:12;;;;;;;4.67;4.37;;;15.90;99.90;;;;;;5092326;28;20991;-78
2021/08/30 03:50:42;;;;;;;5.93;4.87;;;15.90;99.90;;;;;;5093916;28;20478;-78
2021/08/30 03:53:09;;;;;;;4.60;4.20;;;15.90;99.90;;;;;;5096393;28;20867;-78
2021/08/30 03:55:36;;;;;;;5.13;4.63;;;15.80;99.90;;;;;;5096099;28;20529;-78
2021/08/30 03:58:06;;;;;;;5.27;4.87;;;15.80;99.90;;;;;;5096146;28;20537;-78
2021/08/30 04:00:33;;;;;;;5.77;5.37;;;15.80;99.90;;;;;;5096378;28;20442;-78
2021/08/30 04:03:01;;;;;;;5.70;5.20;;;15.80;99.90;;;;;;5096038;28;20470;-78
2021/08/30 04:05:30;;;;;;;7.50;5.50;;;15.80;99.90;;;;;;5095988;28;20480;-78
2021/08/30 04:07:59;;;;;;;4.57;4.23;;;15.70;99.90;;;;;;5096324;28;20488;-78
2021/08/30 04:10:26;;;;;;;5.73;5.33;;;15.70;99.90;;;;;;5096011;28;20952;-77
2021/08/30 04:12:54;;;;;;;7.57;4.80;;;15.70;99.90;;;;;;5096044;28;20481;-78
2021/08/30 04:15:21;;;;;;;6.40;5.47;;;15.70;99.90;;;;;;5095601;28;20450;-77
2021/08/30 04:17:48;;;;;;;7.37;5.63;;;15.70;99.90;;;;;;5094343;28;20526;-78
2021/08/30 04:20:14;;;;;;;5.57;5.17;;;15.70;99.90;;;;;;5095220;28;20542;-78
2021/08/30 04:22:42;;;;;;;6.47;5.87;;;15.70;99.90;;;;;;5095723;28;20522;-78
2021/08/30 04:25:10;;;;;;;5.80;5.30;;;15.80;99.90;;;;;;5095524;28;20484;-77
2021/08/30 04:27:37;;;;;;;8.00;6.23;;;15.70;99.90;;;;;;5095481;28;20848;-77
2021/08/30 04:30:04;;;;;;;6.07;5.63;;;15.70;99.90;;;;;;5095391;28;20525;-77
2021/08/30 04:32:33;;;;;;;6.10;5.57;;;15.70;99.90;;;;;;5095185;28;20445;-77
2021/08/30 04:34:59;;;;;;;7.20;6.50;;;15.70;99.90;;;;;;5095245;28;20957;-77
2021/08/30 04:37:26;;;;;;;7.20;6.60;;;15.70;99.90;;;;;;5095244;28;21006;-77
2021/08/30 04:39:54;;;;;;;7.13;6.50;;;15.70;99.90;;;;;;5095370;28;20470;-77
2021/08/30 04:42:21;;;;;;;7.47;6.77;;;15.70;99.90;;;;;;5095238;28;20537;-77
2021/08/30 04:44:49;;;;;;;6.53;6.00;;;15.70;99.90;;;;;;5095243;28;20470;-77
2021/08/30 04:47:16;;;;;;;7.73;7.10;;;15.70;99.90;;;;;;5095123;28;20447;-77
2021/08/30 04:49:42;;;;;;;7.03;6.40;;;15.80;99.90;;;;;;5095298;28;20903;-77
2021/08/30 04:52:09;;;;;;;6.60;5.77;;;15.80;99.90;;;;;;5094841;28;20989;-77
2021/08/30 04:54:35;;;;;;;8.17;7.37;;;15.80;99.90;;;;;;5095087;28;20530;-77
2021/08/30 04:57:04;;;;;;;7.30;6.70;;;15.80;99.90;;;;;;5095072;28;20470;-77
2021/08/30 04:59:30;;;;;;;7.67;6.90;;;15.80;99.90;;;;;;5095109;28;20548;-78
2021/08/30 05:01:57;;;;;;;7.73;7.13;;;15.90;99.90;;;;;;5094497;28;20537;-78
2021/08/30 05:04:23;;;;;;;7.20;6.43;;;15.90;99.90;;;;;;5094642;28;20549;-78
2021/08/30 05:06:50;;;;;;;6.60;6.00;;;16.00;99.90;;;;;;5094917;28;20542;-78
2021/08/30 05:09:16;;;;;;;9.50;7.87;;;15.90;99.90;;;;;;5094625;28;20442;-78
2021/08/30 05:11:43;;;;;;;9.00;8.20;;;16.00;99.90;;;;;;5094819;28;20541;-77
2021/08/30 05:14:11;;;;;;;9.07;8.27;;;16.00;99.90;;;;;;5088245;28;20480;-78
2021/08/30 05:16:37;;;;;;;7.83;7.13;;;16.10;99.90;;;;;;5094636;28;20529;-80
2021/08/30 05:19:04;;;;;;;7.37;6.67;;;16.10;99.90;;;;;;5094464;28;20526;-78
2021/08/30 05:21:30;;;;;;;7.30;6.67;;;16.10;99.90;;;;;;5094599;28;20552;-79
2021/08/30 05:23:57;;;;;;;8.00;7.30;;;16.10;99.90;;;;;;5094606;28;20527;-79
2021/08/30 05:26:23;;;;;;;6.90;6.30;;;16.10;99.90;;;;;;5094536;28;20530;-80
2021/08/30 05:28:50;;;;;;;8.10;7.40;;;16.00;99.90;;;;;;5094636;28;21008;-79
2021/08/30 05:31:17;;;;;;;7.93;7.33;;;16.10;99.90;;;;;;5094523;28;20526;-79
2021/08/30 05:33:44;;;;;;;8.30;7.60;;;16.10;99.90;;;;;;5094273;28;20872;-80
2021/08/30 05:36:11;;;;;;;8.33;7.53;;;16.10;99.90;;;;;;5091745;28;20526;-78
2021/08/30 05:38:37;;;;;;;7.80;7.00;;;16.20;99.90;;;;;;5094044;28;20474;-77
2021/08/30 05:41:04;;;;;;;8.10;7.40;;;16.20;99.90;;;;;;5093684;28;20578;-77
2021/08/30 05:43:30;;;;;;;8.33;7.63;;;16.30;99.90;;;;;;5093875;28;20558;-77
2021/08/30 05:45:57;;;;;;;8.93;8.07;;;16.30;99.90;;;;;;5093662;28;20542;-77
2021/08/30 05:48:25;;;;;;;7.90;7.10;;;16.30;99.90;;;;;;5093884;28;20850;-78
2021/08/30 05:50:51;;;;;;;11.00;8.03;;;16.40;99.90;;;;;;5092564;28;20973;-78
2021/08/30 05:53:19;;;;;;;8.97;8.13;;;16.40;99.90;;;;;;5093681;28;20482;-78
2021/08/30 05:55:45;;;;;;;10.27;9.37;;;16.40;99.90;;;;;;5093466;28;20452;-78
2021/08/30 05:58:12;;;;;;;17.00;8.43;;;16.40;99.90;;;;;;5093753;28;20443;-79
2021/08/30 06:00:39;;;;;;;13.83;9.40;;;16.40;99.90;;;;;;5093455;28;20842;-78
2021/08/30 06:03:05;;;;;;;11.80;10.03;;;16.50;99.90;;;;;;5093535;28;20877;-78
2021/08/30 06:05:33;;;;;;;13.20;11.03;;;16.50;99.90;;;;;;5093472;28;20538;-78
2021/08/30 06:08:00;;;;;;;10.23;9.20;;;16.50;99.90;;;;;;5093775;28;20474;-81
2021/08/30 06:10:26;;;;;;;10.40;9.33;;;16.50;99.90;;;;;;5093436;28;20474;-81
2021/08/30 06:12:53;;;;;;;9.43;8.50;;;16.60;99.90;;;;;;5094185;28;20477;-80
2021/08/30 06:15:19;;;;;;;10.77;9.77;;;16.60;99.90;;;;;;5086630;28;20927;-80
2021/08/30 06:17:46;;;;;;;12.23;11.03;;;16.80;99.90;;;;;;5093547;28;20546;-76
2021/08/30 06:20:13;;;;;;;11.77;10.57;;;16.80;99.90;;;;;;5093336;28;20526;-77
2021/08/30 06:22:41;;;;;;;12.73;11.37;;;16.80;99.90;;;;;;5093340;28;20478;-83
2021/08/30 06:25:08;;;;;;;12.93;11.63;;;17.00;99.90;;;;;;5092716;28;20509;-78
2021/08/30 06:27:35;;;;;;;14.70;13.30;;;17.00;99.90;;;;;;5093048;28;20481;-79
2021/08/30 06:30:01;;;;;;;11.97;10.67;;;17.10;99.90;;;;;;5092915;28;20945;-78
2021/08/30 06:32:28;;;;;;;11.90;10.70;;;17.20;99.90;;;;;;5093123;28;20470;-78
2021/08/30 06:34:54;;;;;;;13.80;11.10;;;17.20;99.90;;;;;;5093311;28;20538;-78
2021/08/30 06:37:21;;;;;;;12.30;11.10;;;17.20;99.90;;;;;;5090629;28;20530;-78
2021/08/30 06:39:49;;;;;;;13.63;12.33;;;17.30;99.90;;;;;;5087794;28;20533;-78
2021/08/30 06:42:15;;;;;;;12.57;9.73;;;17.30;99.90;;;;;;5091247;28;20450;-78
2021/08/30 06:44:42;;;;;;;11.97;10.03;;;17.40;99.90;;;;;;5091353;28;20522;-76
2021/08/30 06:47:09;;;;;;;11.33;10.20;;;17.50;99.90;;;;;;5092497;28;20529;-77
2021/08/30 06:49:35;;;;;;;10.23;9.33;;;17.60;99.90;;;;;;5092526;28;20937;-76
2021/08/30 06:52:02;;;;;;;11.83;10.50;;;17.60;99.90;;;;;;5092591;28;20529;-76
2021/08/30 06:54:28;;;;;;;12.77;11.50;;;17.70;99.90;;;;;;5092719;28;20451;-76
2021/08/30 06:56:56;;;;;;;11.00;9.90;;;17.70;99.90;;;;;;5089626;28;20474;-76
2021/08/30 06:59:23;;;;;;;10.50;9.47;;;17.70;99.90;;;;;;5092361;28;20592;-76
2021/08/30 07:01:49;;;;;;;11.37;10.20;;;17.70;99.90;;;;;;5092412;28;20446;-76
2021/08/30 07:04:16;;;;;;;12.60;11.13;;;17.70;99.90;;;;;;5091296;28;20509;-79
2021/08/30 07:06:42;;;;;;;10.27;9.27;;;17.70;99.90;;;;;;5092448;28;20537;-81
2021/08/30 07:09:09;;;;;;;14.70;11.13;;;17.70;99.90;;;;;;5092328;28;20554;-81
2021/08/30 07:11:35;;;;;;;14.33;12.93;;;17.70;99.90;;;;;;5092529;28;20477;-81
2021/08/30 07:14:03;;;;;;;14.23;11.90;;;17.70;99.90;;;;;;5091887;28;20810;-81
2021/08/30 07:16:30;;;;;;;13.27;11.80;;;17.80;99.90;;;;;;5092570;28;20527;-81
2021/08/30 07:18:57;;;;;;;13.70;12.10;;;17.80;99.90;;;;;;5092293;28;20477;-81
2021/08/30 07:21:24;;;;;;;16.60;13.20;;;18.00;99.90;;;;;;5093298;28;20449;-84
2021/08/30 07:23:51;;;;;;;14.93;13.40;;;18.10;99.90;;;;;;5093508;28;20880;-84
2021/08/30 07:26:18;;;;;;;15.73;14.23;;;18.20;99.90;;;;;;5095480;28;20473;-86
2021/08/30 07:28:44;;;;;;;15.90;14.30;;;18.30;99.90;;;;;;5096585;28;20573;-81
2021/08/30 07:31:12;;;;;;;15.60;13.97;;;18.40;99.90;;;;;;5096484;28;20447;-81
2021/08/30 07:33:39;;;;;;;14.23;12.73;;;18.60;99.90;;;;;;5096487;28;20438;-81
2021/08/30 07:36:06;;;;;;;15.43;14.00;;;18.70;99.90;;;;;;5096519;28;20442;-82
2021/08/30 07:38:32;;;;;;;13.57;12.20;;;18.70;99.90;;;;;;5096293;28;20533;-82
2021/08/30 07:40:59;;;;;;;14.10;12.53;;;18.80;99.90;;;;;;5096669;28;20872;-82
2021/08/30 07:43:25;;;;;;;12.53;11.13;;;18.80;99.90;;;;;;5096351;28;20494;-81
2021/08/30 07:45:52;;;;;;;13.07;11.67;;;18.80;99.90;;;;;;5096077;28;20584;-81
2021/08/30 07:48:20;;;;;;;12.33;11.13;;;18.80;99.90;;;;;;5096838;28;20450;-81
2021/08/30 07:50:46;;;;;;;11.33;10.17;;;18.70;99.90;;;;;;5096941;28;20477;-81
2021/08/30 07:53:13;;;;;;;13.03;11.17;;;18.60;99.90;;;;;;5096230;28;20478;-81
2021/08/30 07:55:40;;;;;;;11.80;10.60;;;18.40;99.90;;;;;;5096391;28;20492;-82
2021/08/30 07:58:07;;;;;;;10.37;9.43;;;18.30;99.90;;;;;;5096724;28;20477;-81
2021/08/30 08:00:33;;;;;;;11.77;10.27;;;18.20;99.90;;;;;;5096599;28;20529;-80
2021/08/30 08:03:00;;;;;;;9.93;8.93;;;18.20;99.90;;;;;;5096260;28;20443;-81
2021/08/30 08:05:28;;;;;;;11.50;10.40;;;18.00;99.90;;;;;;5096609;28;20580;-81
2021/08/30 08:07:56;;;;;;;13.50;11.20;;;17.90;99.90;;;;;;5096572;28;20493;-80
2021/08/30 08:10:23;;;;;;;14.20;10.60;;;17.90;99.90;;;;;;5096344;28;20447;-81
2021/08/30 08:12:49;;;;;;;11.13;10.03;;;17.90;99.90;;;;;;5096026;28;20529;-81
2021/08/30 08:15:16;;;;;;;12.00;10.70;;;18.00;99.90;;;;;;5089602;28;20613;-81
2021/08/30 08:17:42;;;;;;;11.57;10.37;;;18.00;99.90;;;;;;5095655;28;20515;-81
2021/08/30 08:20:10;;;;;;;11.80;9.90;;;18.10;99.90;;;;;;5095683;28;20442;-79
2021/08/30 08:22:38;;;;;;;14.20;12.00;;;18.20;99.90;;;;;;5093819;28;20474;-80
2021/08/30 08:25:06;;;;;;;11.03;9.77;;;18.30;99.90;;;;;;5095558;28;20508;-79
2021/08/30 08:27:34;;;;;;;11.27;10.07;;;18.40;99.90;;;;;;5095435;28;20442;-81
2021/08/30 08:30:01;;;;;;;11.50;9.80;;;18.40;99.90;;;;;;5095983;28;20806;-81
2021/08/30 08:32:30;;;;;;;12.67;10.53;;;18.40;99.90;;;;;;5095665;28;20451;-82
2021/08/30 08:34:57;;;;;;;13.43;10.43;;;18.40;99.90;;;;;;5095558;28;21017;-81
2021/08/30 08:37:23;;;;;;;9.63;8.73;;;18.30;99.90;;;;;;5094472;28;20539;-81
2021/08/30 08:39:51;;;;;;;14.20;10.77;;;18.20;99.90;;;;;;5095865;28;20530;-81
2021/08/30 08:42:18;;;;;;;10.50;9.40;;;18.20;99.90;;;;;;5095749;28;20549;-81
2021/08/30 08:44:47;;;;;;;9.97;9.00;;;18.10;99.90;;;;;;5095259;28;20565;-81
2021/08/30 08:47:16;;;;;;;10.07;8.60;;;18.20;99.90;;;;;;5095527;28;20458;-81
2021/08/30 08:49:43;;;;;;;10.33;9.23;;;18.20;99.90;;;;;;5095198;28;20447;-80
2021/08/30 08:52:10;;;;;;;9.20;8.30;;;18.30;99.90;;;;;;5095337;28;20870;-81
2021/08/30 08:54:36;;;;;;;8.93;8.13;;;18.30;99.90;;;;;;5095342;28;20521;-81
2021/08/30 08:57:05;;;;;;;10.33;9.23;;;18.20;99.90;;;;;;5094746;28;20521;-81
2021/08/30 08:59:31;;;;;;;10.30;9.23;;;18.00;99.90;;;;;;5095682;28;20447;-81
2021/08/30 09:01:59;;;;;;;9.83;8.93;;;17.80;99.90;;;;;;5095163;28;20498;-81
2021/08/30 09:04:34;;;;;;;9.23;8.43;;;17.80;99.90;;;;;;5095150;28;20471;-80
2021/08/30 09:07:11;;;;;;;11.17;8.97;;;17.70;99.90;;;;;;5095001;28;20553;-80
2021/08/30 09:09:39;;;;;;;12.60;8.97;;;17.90;99.90;;;;;;5095286;28;20446;-81
2021/08/30 09:12:19;;;;;;;11.47;8.57;;;18.10;99.90;;;;;;5094745;28;20442;-81
2021/08/30 09:14:45;;;;;;;9.33;8.47;;;18.20;99.90;;;;;;5080069;28;20465;-81
2021/08/30 09:17:12;;;;;;;10.70;8.27;;;18.40;99.90;;;;;;5094962;28;20447;-81
2021/08/30 09:19:41;;;;;;;8.60;7.70;;;18.50;99.90;;;;;;5095423;28;20544;-81
2021/08/30 09:22:09;;;;;;;8.83;7.93;;;18.50;99.90;;;;;;5095067;28;20490;-82
2021/08/30 09:24:36;;;;;;;11.13;8.10;;;18.40;99.90;;;;;;5095546;28;21040;-82
2021/08/30 09:27:05;;;;;;;7.40;6.80;;;18.40;99.90;;;;;;5094622;28;20483;-82
2021/08/30 09:29:35;;;;;;;8.27;7.47;;;18.40;99.90;;;;;;5094755;28;20508;-88
2021/08/30 09:32:04;;;;;;;9.90;8.40;;;18.30;99.90;;;;;;5094611;28;20892;-88
2021/08/30 09:34:32;;;;;;;9.10;7.37;;;18.40;99.90;;;;;;5094890;28;20824;-88
2021/08/30 09:36:59;;;;;;;8.90;7.40;;;18.50;99.90;;;;;;5095130;28;20450;-88
2021/08/30 09:39:26;;;;;;;7.80;7.10;;;18.70;99.90;;;;;;5095402;28;20490;-88
2021/08/30 09:41:53;;;;;;;6.90;6.30;;;18.90;99.90;;;;;;5094747;28;20984;-94
2021/08/30 09:44:24;;;;;;;7.50;6.80;;;18.80;99.90;;;;;;5094510;28;20462;-90
2021/08/30 09:46:53;;;;;;;6.40;5.90;;;18.60;99.90;;;;;;5094711;28;20454;-86
2021/08/30 09:49:22;;;;;;;7.47;6.30;;;18.60;99.90;;;;;;5094389;28;20474;-81
2021/08/30 09:51:51;;;;;;;6.23;5.73;;;18.50;99.90;;;;;;5094755;28;20521;-81
2021/08/30 09:54:20;;;;;;;6.47;5.87;;;18.40;99.90;;;;;;5094182;28;20423;-81
2021/08/30 09:56:48;;;;;;;7.00;6.40;;;18.40;99.90;;;;;;5094428;28;20971;-81
2021/08/30 09:59:15;;;;;;;6.40;5.83;;;18.40;99.90;;;;;;5093715;28;20470;-80
2021/08/30 10:01:43;;;;;;;6.50;6.00;;;18.50;99.90;;;;;;5093458;28;20538;-81
2021/08/30 10:04:11;;;;;;;6.50;6.00;;;18.60;99.90;;;;;;5093638;28;20542;-81
2021/08/30 10:06:39;;;;;;;5.73;5.33;;;18.70;99.90;;;;;;5094187;28;20803;-81
2021/08/30 10:09:12;;;;;;;6.77;6.17;;;18.70;99.90;;;;;;5093928;28;20504;-81
2021/08/30 10:11:39;;;;;;;5.90;5.50;;;18.70;99.90;;;;;;5093454;28;20443;-81
2021/08/30 10:14:07;;;;;;;6.93;6.33;;;18.70;99.90;;;;;;5086218;28;20958;-81
2021/08/30 10:16:35;;;;;;;5.97;5.50;;;18.90;99.90;;;;;;5092561;28;20994;-80
2021/08/30 10:19:01;;;;;;;6.00;5.60;;;18.90;99.90;;;;;;5093980;28;20870;-80
2021/08/30 10:21:30;;;;;;;6.23;5.60;;;19.00;99.90;;;;;;5093569;28;20874;-79
2021/08/30 10:23:57;;;;;;;6.37;5.97;;;19.00;99.90;;;;;;5093533;28;20446;-80
2021/08/30 10:26:36;;;;;;;5.90;5.40;;;19.00;99.90;;;;;;5093055;28;20509;-81
2021/08/30 10:29:03;;;;;;;7.53;6.83;;;18.90;99.90;;;;;;5093429;28;20530;-80
2021/08/30 10:31:29;;;;;;;6.87;6.27;;;18.80;99.90;;;;;;5093362;28;20570;-80
2021/08/30 10:33:58;;;;;;;7.30;6.60;;;18.80;99.90;;;;;;5092983;28;20486;-80
2021/08/30 10:36:27;;;;;;;6.10;5.70;;;18.60;99.90;;;;;;5093393;28;20887;-79
2021/08/30 10:38:59;;;;;;;6.57;6.17;;;18.50;99.90;;;;;;5092891;28;21143;-80
2021/08/30 10:41:32;;;;;;;5.87;5.37;;;18.50;99.90;;;;;;5093148;28;20474;-80
2021/08/30 10:44:07;;;;;;;6.73;6.23;;;18.60;99.90;;;;;;5092822;28;20502;-80
2021/08/30 10:46:38;;;;;;;6.90;6.40;;;18.60;99.90;;;;;;5076479;28;20485;-79
2021/08/30 10:49:09;;;;;;;6.43;5.87;;;18.60;99.90;;;;;;5092847;28;20953;-80
2021/08/30 10:51:39;;;;;;;6.00;5.60;;;18.70;99.90;;;;;;5092925;28;20478;-80
2021/08/30 10:54:10;;;;;;;5.97;5.47;;;18.70;99.90;;;;;;5092828;28;20454;-80
2021/08/30 10:56:37;;;;;;;6.23;5.83;;;18.80;99.90;;;;;;5077168;28;20870;-79
2021/08/30 10:59:06;;;;;;;6.97;6.17;;;18.70;99.90;;;;;;5093010;28;20458;-80
2021/08/30 11:01:34;;;;;;;6.10;5.70;;;18.60;99.90;;;;;;5092145;28;20450;-80
2021/08/30 11:04:01;;;;;;;5.30;4.90;;;18.70;99.90;;;;;;5092661;28;20447;-79
2021/08/30 11:06:27;;;;;;;7.17;6.57;;;18.70;99.90;;;;;;5093180;28;20498;-80
2021/08/30 11:08:54;;;;;;;6.27;5.70;;;18.70;99.90;;;;;;5092829;28;20446;-80
2021/08/30 11:11:24;;;;;;;5.27;4.87;;;18.80;99.90;;;;;;5092820;28;20470;-79
2021/08/30 11:14:00;;;;;;;4.90;4.60;;;18.70;99.90;;;;;;5087729;28;20539;-79
2021/08/30 11:16:27;;;;;;;5.60;5.20;;;18.60;99.90;;;;;;5091901;28;20478;-80
2021/08/30 11:18:59;;;;;;;5.13;4.70;;;18.60;99.90;;;;;;5092618;28;20499;-80
2021/08/30 11:21:34;;;;;;;5.73;5.33;;;18.60;99.90;;;;;;5093049;28;20558;-80
2021/08/30 11:24:00;;;;;;;5.93;5.53;;;18.70;99.90;;;;;;5092659;28;20445;-80
2021/08/30 11:26:28;;;;;;;5.50;5.10;;;18.90;99.90;;;;;;5092608;28;20527;-80
2021/08/30 11:28:56;;;;;;;5.10;4.70;;;19.10;99.90;;;;;;5092974;28;20478;-80
2021/08/30 11:31:23;;;;;;;5.73;5.00;;;19.30;99.90;;;;;;5092699;28;20529;-81
2021/08/30 11:33:50;;;;;;;4.70;4.40;;;19.70;99.90;;;;;;5092903;28;20533;-81
2021/08/30 11:36:17;;;;;;;4.20;3.90;;;20.00;99.90;;;;;;5092471;28;20445;-80
2021/08/30 11:38:52;;;;;;;5.83;4.27;;;20.30;99.90;;;;;;5092629;28;20929;-83
2021/08/30 11:41:19;;;;;;;4.13;3.73;;;20.70;99.90;;;;;;5092659;28;20469;-80
2021/08/30 11:43:47;;;;;;;4.30;4.10;;;21.00;99.90;;;;;;5092319;28;20515;-80
2021/08/30 11:46:14;;;;;;;4.13;3.83;;;21.20;99.90;;;;;;5092354;28;20577;-80
2021/08/30 11:48:40;;;;;;;3.70;3.40;;;21.40;99.90;;;;;;5092212;28;20964;-79
2021/08/30 11:51:08;;;;;;;4.80;4.43;;;21.50;99.90;;;;;;5090229;28;20872;-80
2021/08/30 11:53:37;;;;;;;4.40;4.00;;;21.50;99.90;;;;;;5091822;28;20542;-80
2021/08/30 11:56:04;;;;;;;4.63;4.40;;;21.50;99.90;;;;;;5092022;28;20450;-80
2021/08/30 11:58:34;;;;;;;4.10;3.80;;;21.60;99.90;;;;;;5092017;28;20533;-80
2021/08/30 12:01:03;;;;;;;4.20;3.90;;;21.60;99.90;;;;;;5092310;28;20457;-80
2021/08/30 12:03:42;;;;;;;4.20;3.90;;;21.50;99.90;;;;;;5092074;28;20529;-80
2021/08/30 12:06:15;;;;;;;4.47;4.07;;;21.30;99.90;;;;;;5092038;28;21007;-80
2021/08/30 12:08:48;;;;;;;3.97;3.60;;;20.90;99.90;;;;;;5092039;28;20474;-80
2021/08/30 12:11:15;;;;;;;5.33;3.80;;;20.60;99.90;;;;;;5092977;28;20446;-78
2021/08/30 12:13:55;;;;;;;5.07;4.60;;;20.00;99.90;;;;;;5092088;28;20543;-77
2021/08/30 12:16:25;;;;;;;5.30;4.80;;;19.30;99.90;;;;;;5094494;28;20446;-77
2021/08/30 12:18:53;;;;;;;4.40;4.10;;;19.00;99.90;;;;;;5095768;28;20499;-77
2021/08/30 12:21:29;;;;;;;4.83;4.50;;;18.70;99.90;;;;;;5095679;28;21028;-77
2021/08/30 12:23:56;;;;;;;4.10;3.90;;;18.60;99.90;;;;;;5094953;28;20972;-77
2021/08/30 12:26:23;;;;;;;4.97;4.47;;;18.70;99.90;;;;;;5094381;28;20921;-77
2021/08/30 12:28:55;;;;;;;5.47;5.07;;;18.80;99.90;;;;;;5095304;28;20557;-77
2021/08/30 12:31:29;;;;;;;6.73;4.97;;;18.90;99.90;;;;;;5095631;28;20963;-77
2021/08/30 12:34:07;;;;;;;4.97;4.67;;;18.90;99.90;;;;;;5095292;28;20800;-77
2021/08/30 12:36:35;;;;;;;5.07;4.77;;;19.00;99.90;;;;;;5095224;28;20474;-77
2021/08/30 12:39:03;;;;;;;5.63;5.23;;;19.00;99.90;;;;;;5094574;28;20537;-78
2021/08/30 12:41:30;;;;;;;5.77;5.37;;;18.80;99.90;;;;;;5094673;28;21165;-78
2021/08/30 12:43:57;;;;;;;5.70;5.27;;;18.40;99.90;;;;;;5094062;28;20554;-77
2021/08/30 12:46:23;;;;;;;6.50;6.07;;;18.30;99.90;;;;;;5094259;28;21040;-77
2021/08/30 12:48:52;;;;;;;5.00;4.60;;;18.30;99.90;;;;;;5094589;28;20451;-77